createdAt,value
2023-05-03T00:01:19.935Z,1.00
2023-05-03T00:03:46.395Z,0.90
2023-05-03T00:06:14.173Z,1.15
2023-05-03T00:08:41.031Z,0.93
2023-05-03T00:11:09.992Z,1.02
2023-05-03T00:13:36.979Z,1.00
2023-05-03T00:16:03.616Z,0.95
2023-05-03T00:18:30.581Z,1.40
2023-05-03T00:20:58.281Z,1.10
2023-05-03T00:23:24.955Z,1.00
2023-05-03T00:25:53.825Z,1.10
2023-05-03T00:28:20.602Z,1.00
2023-05-03T00:30:47.090Z,1.05
2023-05-03T00:33:13.436Z,1.08
2023-05-03T00:35:39.832Z,1.27
2023-05-03T00:38:06.512Z,0.88
2023-05-03T00:40:32.966Z,0.80
2023-05-03T00:42:59.320Z,1.20
2023-05-03T00:45:25.886Z,1.15
2023-05-03T00:47:52.732Z,1.02
2023-05-03T00:50:20.872Z,1.10
2023-05-03T00:52:47.439Z,1.10
2023-05-03T00:55:15.448Z,0.95
2023-05-03T00:57:41.908Z,1.13
2023-05-03T01:00:13.499Z,1.02
2023-05-03T01:02:40.109Z,1.02
2023-05-03T01:05:07.352Z,1.60
2023-05-03T01:07:42.546Z,1.55
2023-05-03T01:10:31.825Z,1.23
2023-05-03T01:13:13.414Z,1.05
2023-05-03T01:16:18.725Z,1.02
2023-05-03T01:18:49.805Z,1.23
2023-05-03T01:21:22.751Z,1.33
2023-05-03T01:24:03.771Z,0.93
2023-05-03T01:26:30.303Z,1.08
2023-05-03T01:28:56.815Z,1.17
2023-05-03T01:31:55.606Z,1.48
2023-05-03T01:36:58.662Z,1.00
2023-05-03T01:39:31.194Z,1.27
2023-05-03T01:41:59.229Z,1.02
2023-05-03T01:44:26.689Z,1.30
2023-05-03T01:46:53.492Z,1.13
2023-05-03T01:49:19.864Z,1.13
2023-05-03T01:51:46.288Z,1.05
2023-05-03T01:54:12.763Z,1.40
2023-05-03T01:56:41.934Z,1.05
2023-05-03T01:59:08.284Z,1.60
2023-05-03T02:01:34.818Z,1.17
2023-05-03T02:04:01.310Z,1.25
2023-05-03T02:06:28.076Z,0.98
2023-05-03T02:08:54.511Z,0.95
2023-05-03T02:11:21.584Z,1.13
2023-05-03T02:13:49.496Z,1.92
2023-05-03T02:16:17.355Z,1.08
2023-05-03T02:18:44.515Z,1.30
2023-05-03T02:21:11.193Z,1.20
2023-05-03T02:23:37.562Z,1.23
2023-05-03T02:26:03.955Z,1.17
2023-05-03T02:28:30.545Z,1.13
2023-05-03T02:30:56.975Z,1.23
2023-05-03T02:33:23.349Z,1.13
2023-05-03T02:35:49.708Z,1.23
2023-05-03T02:38:16.723Z,1.13
2023-05-03T02:40:43.128Z,0.93
2023-05-03T02:43:09.537Z,1.17
2023-05-03T02:45:36.813Z,1.23
2023-05-03T02:48:03.849Z,0.90
2023-05-03T02:50:30.399Z,1.10
2023-05-03T02:52:57.004Z,1.20
2023-05-03T02:55:23.461Z,1.02
2023-05-03T02:57:49.916Z,1.10
2023-05-03T03:00:16.678Z,1.20
2023-05-03T03:02:43.262Z,1.00
2023-05-03T03:05:10.011Z,1.10
2023-05-03T03:07:37.929Z,1.00
2023-05-03T03:10:04.748Z,1.27
2023-05-03T03:12:31.429Z,1.00
2023-05-03T03:14:57.879Z,1.40
2023-05-03T03:17:24.433Z,1.08
2023-05-03T03:19:50.920Z,1.27
2023-05-03T03:22:17.287Z,1.08
2023-05-03T03:24:43.734Z,1.30
2023-05-03T03:27:10.266Z,1.42
2023-05-03T03:29:36.672Z,1.30
2023-05-03T03:32:03.092Z,1.20
2023-05-03T03:34:29.658Z,0.90
2023-05-03T03:36:56.091Z,1.00
2023-05-03T03:39:22.585Z,1.08
2023-05-03T03:41:49.154Z,1.13
2023-05-03T03:44:15.588Z,0.82
2023-05-03T03:46:42.240Z,1.00
2023-05-03T03:49:08.788Z,0.98
2023-05-03T03:51:35.202Z,1.13
2023-05-03T03:54:01.694Z,1.40
2023-05-03T03:56:28.261Z,1.30
2023-05-03T03:58:54.731Z,1.17
2023-05-03T04:01:21.116Z,0.90
2023-05-03T04:03:47.836Z,0.93
2023-05-03T04:06:14.506Z,1.15
2023-05-03T04:08:40.925Z,1.05
2023-05-03T04:11:12.478Z,1.05
2023-05-03T04:13:39.135Z,1.15
2023-05-03T04:16:08.953Z,1.10
2023-05-03T04:18:35.611Z,0.98
2023-05-03T04:21:02.165Z,0.98
2023-05-03T04:23:28.540Z,0.70
2023-05-03T04:25:54.957Z,1.30
2023-05-03T04:28:22.116Z,1.38
2023-05-03T04:30:49.333Z,0.90
2023-05-03T04:33:16.108Z,1.42
2023-05-03T04:35:42.579Z,1.30
2023-05-03T04:38:09.799Z,1.10
2023-05-03T04:40:36.258Z,1.45
2023-05-03T04:43:02.708Z,1.98
2023-05-03T04:45:29.063Z,1.40
2023-05-03T04:47:55.679Z,1.45
2023-05-03T04:50:22.079Z,1.40
2023-05-03T04:52:48.538Z,1.50
2023-05-03T04:55:14.978Z,1.30
2023-05-03T04:57:42.541Z,1.35
2023-05-03T05:00:12.688Z,1.30
2023-05-03T05:02:39.560Z,1.35
2023-05-03T05:05:06.867Z,1.17
2023-05-03T05:07:34.283Z,1.48
2023-05-03T05:10:00.958Z,1.40
2023-05-03T05:12:27.578Z,1.33
2023-05-03T05:14:53.959Z,1.20
2023-05-03T05:17:21.737Z,1.65
2023-05-03T05:19:48.193Z,1.55
2023-05-03T05:22:14.582Z,1.35
2023-05-03T05:24:41.283Z,0.95
2023-05-03T05:27:07.783Z,1.33
2023-05-03T05:29:34.164Z,1.33
2023-05-03T05:32:03.327Z,1.42
2023-05-03T05:37:06.284Z,1.50
2023-05-03T05:39:32.691Z,0.95
2023-05-03T05:41:59.042Z,1.42
2023-05-03T05:44:25.445Z,1.10
2023-05-03T05:46:52.478Z,1.52
2023-05-03T05:49:19.077Z,1.30
2023-05-03T05:51:45.834Z,1.45
2023-05-03T05:54:12.327Z,1.30
2023-05-03T05:56:39.097Z,1.35
2023-05-03T05:59:06.059Z,1.60
2023-05-03T06:01:33.506Z,1.17
2023-05-03T06:03:59.877Z,1.38
2023-05-03T06:06:27.428Z,1.00
2023-05-03T06:08:53.883Z,1.25
2023-05-03T06:11:21.460Z,1.65
2023-05-03T06:13:47.989Z,1.30
2023-05-03T06:16:14.453Z,1.13
2023-05-03T06:18:40.802Z,1.30
2023-05-03T06:21:07.217Z,1.23
2023-05-03T06:23:33.721Z,1.17
2023-05-03T06:26:00.180Z,1.55
2023-05-03T06:28:26.540Z,1.40
2023-05-03T06:30:53.130Z,1.30
2023-05-03T06:33:19.571Z,1.25
2023-05-03T06:35:47.152Z,1.42
2023-05-03T06:38:13.771Z,1.45
2023-05-03T06:40:41.456Z,1.30
2023-05-03T06:43:08.101Z,1.50
2023-05-03T06:45:34.570Z,1.42
2023-05-03T06:48:01.134Z,1.85
2023-05-03T06:50:27.764Z,1.80
2023-05-03T06:52:54.830Z,1.58
2023-05-03T06:55:21.252Z,1.52
2023-05-03T06:57:48.364Z,1.40
2023-05-03T07:00:15.812Z,1.50
2023-05-03T07:02:42.538Z,1.70
2023-05-03T07:05:09.679Z,1.65
2023-05-03T07:07:36.630Z,1.50
2023-05-03T07:10:03.783Z,1.35
2023-05-03T07:12:30.459Z,1.60
2023-05-03T07:14:57.730Z,1.17
2023-05-03T07:17:24.646Z,1.50
2023-05-03T07:19:52.645Z,1.23
2023-05-03T07:22:24.855Z,1.38
2023-05-03T07:24:59.567Z,1.10
2023-05-03T07:27:26.878Z,1.13
2023-05-03T07:29:53.412Z,1.35
2023-05-03T07:32:19.943Z,1.15
2023-05-03T07:34:46.429Z,1.13
2023-05-03T07:37:12.942Z,1.02
2023-05-03T07:39:42.309Z,1.30
2023-05-03T07:42:08.813Z,0.90
2023-05-03T07:44:35.316Z,1.25
2023-05-03T07:47:01.851Z,0.93
2023-05-03T07:49:28.532Z,0.95
2023-05-03T07:51:55.015Z,1.00
2023-05-03T07:54:21.466Z,0.82
2023-05-03T07:56:47.992Z,1.20
2023-05-03T07:59:14.667Z,1.20
2023-05-03T08:01:41.011Z,1.00
2023-05-03T08:04:08.695Z,0.90
2023-05-03T08:06:35.965Z,1.27
2023-05-03T08:09:02.538Z,1.10
2023-05-03T08:11:29.106Z,1.10
2023-05-03T08:13:56.394Z,1.00
2023-05-03T08:16:23.483Z,1.35
2023-05-03T08:18:49.893Z,0.93
2023-05-03T08:21:17.481Z,1.05
2023-05-03T08:23:44.414Z,1.30
2023-05-03T08:26:13.934Z,1.10
2023-05-03T08:28:40.382Z,1.00
2023-05-03T08:31:07.781Z,1.00
2023-05-03T08:33:34.627Z,1.13
2023-05-03T08:36:01.691Z,1.00
2023-05-03T08:38:28.852Z,1.00
2023-05-03T08:40:59.383Z,1.20
2023-05-03T08:43:28.561Z,1.25
2023-05-03T08:45:55.099Z,1.40
2023-05-03T08:48:22.278Z,0.80
2023-05-03T08:50:51.625Z,1.00
2023-05-03T08:53:18.161Z,1.08
2023-05-03T08:55:44.747Z,1.27
2023-05-03T08:58:12.929Z,0.90
2023-05-03T09:00:41.677Z,1.00
2023-05-03T09:03:08.319Z,1.23
2023-05-03T09:05:39.174Z,1.15
2023-05-03T09:08:08.289Z,1.10
2023-05-03T09:10:41.244Z,1.20
2023-05-03T09:13:09.680Z,1.05
2023-05-03T09:15:37.368Z,1.35
2023-05-03T09:18:16.183Z,1.25
2023-05-03T09:20:51.166Z,1.05
2023-05-03T09:23:26.858Z,1.35
2023-05-03T09:25:53.424Z,1.58
2023-05-03T09:28:20.976Z,1.10
2023-05-03T09:30:48.752Z,1.00
2023-05-03T09:33:22.144Z,1.23
2023-05-03T09:36:00.787Z,1.48
2023-05-03T09:38:36.769Z,1.50
2023-05-03T09:41:06.049Z,1.30
2023-05-03T09:43:33.530Z,1.33
2023-05-03T09:46:11.657Z,1.20
2023-05-03T09:48:39.138Z,1.30
2023-05-03T09:51:06.589Z,1.20
2023-05-03T09:53:34.351Z,1.48
2023-05-03T09:56:10.092Z,1.35
2023-05-03T09:58:36.589Z,1.52
2023-05-03T10:01:03.130Z,1.70
2023-05-03T10:03:32.724Z,1.45
2023-05-03T10:06:03.950Z,1.45
2023-05-03T10:08:35.369Z,1.67
2023-05-03T10:11:08.040Z,1.50
2023-05-03T10:13:35.664Z,1.38
2023-05-03T10:16:17.784Z,1.83
2023-05-03T10:18:53.987Z,1.38
2023-05-03T10:21:38.332Z,1.08
2023-05-03T10:24:16.187Z,1.33
2023-05-03T10:26:47.696Z,1.63
2023-05-03T10:29:37.062Z,1.73
2023-05-03T10:32:32.380Z,1.30
2023-05-03T10:35:23.595Z,1.38
2023-05-03T10:37:51.819Z,1.50
2023-05-03T10:40:19.210Z,1.50
2023-05-03T10:42:51.331Z,1.52
2023-05-03T10:45:28.585Z,1.30
2023-05-03T10:48:10.504Z,1.60
2023-05-03T10:50:38.189Z,1.40
2023-05-03T10:53:05.487Z,1.77
2023-05-03T10:55:32.893Z,1.40
2023-05-03T10:58:01.441Z,1.50
2023-05-03T11:00:37.144Z,1.50
2023-05-03T11:03:18.834Z,1.70
2023-05-03T11:05:48.044Z,1.77
2023-05-03T11:08:20.454Z,1.70
2023-05-03T11:10:49.330Z,1.80
2023-05-03T11:13:16.317Z,1.80
2023-05-03T11:15:43.122Z,1.67
2023-05-03T11:18:12.079Z,1.73
2023-05-03T11:20:38.568Z,2.03
2023-05-03T11:23:06.938Z,2.08
2023-05-03T11:25:34.178Z,1.73
2023-05-03T11:28:02.091Z,1.95
2023-05-03T11:30:29.751Z,1.80
2023-05-03T11:32:56.679Z,1.70
2023-05-03T11:35:24.103Z,1.95
2023-05-03T11:37:50.941Z,1.83
2023-05-03T11:40:17.657Z,1.95
2023-05-03T11:42:59.963Z,1.83
2023-05-03T11:45:32.156Z,2.13
2023-05-03T11:47:59.302Z,1.83
2023-05-03T11:50:45.643Z,2.30
2023-05-03T11:55:46.214Z,2.15
2023-05-03T11:58:20.691Z,2.15
2023-05-03T12:00:49.918Z,2.13
2023-05-03T12:03:30.535Z,1.92
2023-05-03T12:05:58.914Z,2.08
2023-05-03T12:08:36.474Z,2.03
2023-05-03T12:11:06.318Z,1.88
2023-05-03T12:13:39.358Z,2.25
2023-05-03T12:16:14.167Z,2.20
2023-05-03T12:18:55.683Z,2.25
2023-05-03T12:23:55.707Z,2.55
2023-05-03T12:26:25.157Z,2.38
2023-05-03T12:31:23.099Z,2.60
2023-05-03T12:34:11.664Z,2.22
2023-05-03T12:36:38.234Z,2.38
2023-05-03T12:44:09.776Z,2.53
2023-05-03T12:46:38.230Z,2.42
2023-05-03T12:49:07.602Z,2.40
2023-05-03T12:51:35.260Z,2.53
2023-05-03T12:54:02.492Z,2.58
2023-05-03T12:56:32.555Z,2.80
2023-05-03T12:59:27.488Z,2.88
2023-05-03T13:03:08.973Z,2.72
2023-05-03T13:04:57.214Z,2.38
2023-05-03T13:07:28.166Z,2.55
2023-05-03T13:12:27.184Z,2.50
2023-05-03T13:14:54.793Z,2.92
2023-05-03T13:17:23.175Z,2.70
2023-05-03T13:19:51.173Z,2.28
2023-05-03T13:22:18.173Z,2.63
2023-05-03T13:24:46.397Z,2.42
2023-05-03T13:27:14.768Z,2.92
2023-05-03T13:29:41.900Z,2.53
2023-05-03T13:32:09.444Z,2.70
2023-05-03T13:34:36.457Z,2.45
2023-05-03T13:37:04.423Z,2.42
2023-05-03T13:39:32.049Z,2.28
2023-05-03T13:41:58.708Z,2.22
2023-05-03T13:44:25.421Z,2.38
2023-05-03T13:46:56.262Z,2.83
2023-05-03T13:49:22.771Z,2.50
2023-05-03T13:51:49.179Z,2.63
2023-05-03T13:54:15.576Z,2.85
2023-05-03T13:56:42.904Z,2.72
2023-05-03T13:59:12.518Z,2.55
2023-05-03T14:01:39.682Z,2.90
2023-05-03T14:04:06.604Z,2.47
2023-05-03T14:06:33.819Z,2.03
2023-05-03T14:09:01.678Z,2.42
2023-05-03T14:11:29.702Z,2.63
2023-05-03T14:13:57.362Z,2.67
2023-05-03T14:18:55.959Z,2.72
2023-05-03T14:21:22.576Z,2.35
2023-05-03T14:23:52.109Z,2.55
2023-05-03T14:26:19.739Z,2.78
2023-05-03T14:28:46.460Z,2.40
2023-05-03T14:31:13.238Z,2.53
2023-05-03T14:33:40.146Z,2.53
2023-05-03T14:36:07.968Z,2.10
2023-05-03T14:38:35.134Z,1.83
2023-05-03T14:41:01.708Z,2.20
2023-05-03T14:43:28.437Z,2.60
2023-05-03T14:45:55.238Z,2.08
2023-05-03T14:48:21.775Z,2.20
2023-05-03T14:50:51.687Z,2.28
2023-05-03T14:53:18.305Z,2.17
2023-05-03T14:55:45.718Z,2.20
2023-05-03T14:58:15.703Z,1.80
2023-05-03T15:00:42.603Z,2.47
2023-05-03T15:03:12.347Z,2.10
2023-05-03T15:05:46.549Z,2.80
2023-05-03T15:08:21.310Z,2.50
2023-05-03T15:10:47.993Z,2.72
2023-05-03T15:13:16.427Z,2.40
2023-05-03T15:15:43.762Z,2.47
2023-05-03T15:18:11.032Z,2.75
2023-05-03T15:20:38.386Z,2.38
2023-05-03T15:23:05.175Z,1.95
2023-05-03T15:25:32.529Z,2.53
2023-05-03T15:28:02.608Z,2.70
2023-05-03T15:30:30.502Z,2.42
2023-05-03T15:32:56.978Z,2.60
2023-05-03T15:35:23.424Z,2.70
2023-05-03T15:37:49.919Z,3.08
2023-05-03T15:40:18.625Z,2.40
2023-05-03T15:42:45.047Z,2.50
2023-05-03T15:45:13.060Z,2.30
2023-05-03T15:47:42.719Z,2.42
2023-05-03T15:50:09.713Z,2.80
2023-05-03T15:52:36.644Z,2.42
2023-05-03T15:55:03.344Z,2.45
2023-05-03T15:57:30.437Z,2.42
2023-05-03T15:59:57.247Z,2.53
2023-05-03T16:02:23.758Z,2.55
2023-05-03T16:04:50.752Z,2.30
2023-05-03T16:07:17.714Z,2.17
2023-05-03T16:09:44.221Z,2.67
2023-05-03T16:12:11.205Z,2.67
2023-05-03T16:14:37.701Z,2.58
2023-05-03T16:17:04.242Z,2.55
2023-05-03T16:19:31.895Z,2.63
2023-05-03T16:21:58.365Z,2.47
2023-05-03T16:24:24.745Z,2.47
2023-05-03T16:26:51.266Z,2.35
2023-05-03T16:29:18.020Z,2.63
2023-05-03T16:31:46.367Z,2.78
2023-05-03T16:34:13.544Z,2.92
2023-05-03T16:36:42.879Z,2.72
2023-05-03T16:39:11.334Z,2.90
2023-05-03T16:41:39.457Z,2.95
2023-05-03T16:44:07.156Z,2.53
2023-05-03T16:46:38.513Z,2.72
2023-05-03T16:49:06.360Z,2.90
2023-05-03T16:51:33.558Z,2.58
2023-05-03T16:54:02.286Z,2.97
2023-05-03T16:56:30.752Z,2.55
2023-05-03T16:58:57.300Z,2.83
2023-05-03T17:01:23.779Z,3.47
2023-05-03T17:03:50.381Z,2.42
2023-05-03T17:06:18.220Z,2.67
2023-05-03T17:08:45.462Z,2.50
2023-05-03T17:11:14.246Z,2.83
2023-05-03T17:13:41.494Z,2.97
2023-05-03T17:16:10.848Z,3.00
2023-05-03T17:18:39.123Z,2.53
2023-05-03T17:21:06.785Z,2.72
2023-05-03T17:23:35.709Z,2.95
2023-05-03T17:26:04.092Z,3.17
2023-05-03T17:28:31.630Z,3.00
2023-05-03T17:30:59.191Z,2.88
2023-05-03T17:33:26.147Z,3.15
2023-05-03T17:35:53.666Z,3.10
2023-05-03T17:38:20.422Z,3.40
2023-05-03T17:40:47.112Z,2.63
2023-05-03T17:43:17.498Z,3.17
2023-05-03T17:45:45.904Z,2.85
2023-05-03T17:48:13.080Z,2.80
2023-05-03T17:50:40.075Z,2.72
2023-05-03T17:53:06.985Z,3.20
2023-05-03T17:55:38.238Z,3.00
2023-05-03T17:58:06.530Z,3.03
2023-05-03T18:00:33.638Z,2.80
2023-05-03T18:03:01.014Z,2.60
2023-05-03T18:05:27.583Z,2.83
2023-05-03T18:07:54.276Z,2.60
2023-05-03T18:10:21.230Z,2.47
2023-05-03T18:12:47.815Z,2.67
2023-05-03T18:15:15.474Z,2.60
2023-05-03T18:17:42.803Z,2.60
2023-05-03T18:20:09.691Z,2.38
2023-05-03T18:22:37.431Z,2.90
2023-05-03T18:25:07.138Z,2.90
2023-05-03T18:27:36.706Z,2.55
2023-05-03T18:30:06.902Z,2.40
2023-05-03T18:32:34.576Z,2.35
2023-05-03T18:35:01.491Z,2.45
2023-05-03T18:37:28.461Z,2.80
2023-05-03T18:39:55.158Z,2.08
2023-05-03T18:42:22.582Z,2.30
2023-05-03T18:44:49.427Z,2.40
2023-05-03T18:47:16.411Z,2.17
2023-05-03T18:49:46.912Z,1.83
2023-05-03T18:52:13.399Z,2.25
2023-05-03T18:54:39.852Z,2.63
2023-05-03T18:57:06.324Z,2.45
2023-05-03T18:59:32.768Z,2.33
2023-05-03T19:01:59.295Z,2.45
2023-05-03T19:04:25.757Z,2.72
2023-05-03T19:06:52.484Z,2.42
2023-05-03T19:09:19.280Z,2.67
2023-05-03T19:11:45.830Z,2.90
2023-05-03T19:14:12.284Z,2.72
2023-05-03T19:16:38.894Z,2.38
2023-05-03T19:19:05.411Z,2.45
2023-05-03T19:21:32.224Z,2.53
2023-05-03T19:23:58.771Z,2.72
2023-05-03T19:26:25.228Z,2.95
2023-05-03T19:28:51.691Z,2.72
2023-05-03T19:31:18.270Z,2.58
2023-05-03T19:33:44.729Z,3.60
2023-05-03T19:36:15.089Z,2.97
2023-05-03T19:38:41.530Z,3.13
2023-05-03T19:41:11.929Z,3.15
2023-05-03T19:43:39.626Z,3.20
2023-05-03T19:46:07.147Z,2.95
2023-05-03T19:48:34.121Z,2.90
2023-05-03T19:51:00.880Z,2.97
2023-05-03T19:53:27.974Z,2.97
2023-05-03T19:55:59.249Z,3.28
2023-05-03T19:58:27.234Z,3.13
2023-05-03T20:00:54.137Z,2.72
2023-05-03T20:03:24.289Z,2.90
2023-05-03T20:05:51.108Z,3.05
2023-05-03T20:08:17.763Z,3.20
2023-05-03T20:10:46.282Z,2.85
2023-05-03T20:13:13.768Z,3.13
2023-05-03T20:15:40.245Z,3.63
2023-05-03T20:18:07.011Z,2.88
2023-05-03T20:20:33.716Z,3.45
2023-05-03T20:23:00.076Z,2.97
2023-05-03T20:25:26.575Z,3.05
2023-05-03T20:27:53.258Z,3.40
2023-05-03T20:30:19.861Z,3.17
2023-05-03T20:32:46.353Z,3.17
2023-05-03T20:35:13.344Z,3.17
2023-05-03T20:37:40.017Z,3.20
2023-05-03T20:40:07.516Z,3.28
2023-05-03T20:42:33.912Z,3.00
2023-05-03T20:45:00.300Z,2.92
2023-05-03T20:47:27.764Z,3.15
2023-05-03T20:49:54.156Z,2.90
2023-05-03T20:52:20.656Z,2.88
2023-05-03T20:54:47.152Z,3.30
2023-05-03T20:57:13.728Z,3.45
2023-05-03T20:59:40.413Z,3.38
2023-05-03T21:02:07.142Z,3.22
2023-05-03T21:04:33.560Z,3.22
2023-05-03T21:07:00.032Z,2.78
2023-05-03T21:09:26.763Z,3.20
2023-05-03T21:11:53.708Z,3.50
2023-05-03T21:14:20.163Z,2.75
2023-05-03T21:16:46.813Z,3.35
2023-05-03T21:19:13.335Z,3.35
2023-05-03T21:21:41.249Z,3.40
2023-05-03T21:24:08.311Z,3.10
2023-05-03T21:26:35.167Z,3.13
2023-05-03T21:29:01.567Z,3.15
2023-05-03T21:31:27.999Z,3.03
2023-05-03T21:33:54.402Z,3.03
2023-05-03T21:36:20.864Z,3.35
2023-05-03T21:38:47.267Z,3.28
2023-05-03T21:41:13.832Z,3.50
2023-05-03T21:43:40.337Z,3.50
2023-05-03T21:46:10.050Z,3.20
2023-05-03T21:48:37.284Z,3.55
2023-05-03T21:51:04.183Z,3.00
2023-05-03T21:53:31.159Z,3.15
2023-05-03T21:55:57.581Z,2.92
2023-05-03T21:58:24.047Z,3.28
2023-05-03T22:00:50.395Z,3.03
2023-05-03T22:03:16.948Z,3.65
2023-05-03T22:05:47.606Z,3.20
2023-05-03T22:08:14.364Z,3.40
2023-05-03T22:10:41.488Z,3.22
2023-05-03T22:13:07.988Z,3.55
2023-05-03T22:15:34.688Z,3.35
2023-05-03T22:18:01.230Z,3.45
2023-05-03T22:20:29.426Z,3.15
2023-05-03T22:22:56.274Z,3.13
2023-05-03T22:25:27.430Z,3.22
2023-05-03T22:27:54.777Z,3.25
2023-05-03T22:30:21.594Z,3.30
2023-05-03T22:32:48.057Z,3.20
2023-05-03T22:35:14.982Z,3.22
2023-05-03T22:37:41.998Z,3.40
2023-05-03T22:40:09.417Z,3.33
2023-05-03T22:42:35.921Z,3.50
2023-05-03T22:45:02.444Z,3.58
2023-05-03T22:47:29.002Z,3.80
2023-05-03T22:49:55.790Z,3.95
2023-05-03T22:52:22.549Z,3.60
2023-05-03T22:54:48.969Z,3.90
2023-05-03T22:57:15.749Z,3.83
2023-05-03T22:59:45.000Z,3.85
2023-05-03T23:02:11.646Z,3.90
2023-05-03T23:04:38.004Z,4.13
2023-05-03T23:07:04.554Z,4.03
2023-05-03T23:09:30.926Z,3.28
2023-05-03T23:11:58.773Z,4.38
2023-05-03T23:14:25.216Z,3.88
2023-05-03T23:16:51.885Z,4.30
2023-05-03T23:19:18.303Z,3.97
2023-05-03T23:21:44.703Z,4.57
2023-05-03T23:24:11.475Z,4.50
2023-05-03T23:26:37.929Z,3.92
2023-05-03T23:29:04.783Z,4.53
2023-05-03T23:31:33.139Z,4.18
2023-05-03T23:34:02.057Z,4.20
2023-05-03T23:36:28.580Z,3.97
2023-05-03T23:38:55.013Z,3.72
2023-05-03T23:41:21.773Z,4.00
2023-05-03T23:43:48.251Z,4.55
2023-05-03T23:46:14.692Z,4.30
2023-05-03T23:48:41.273Z,3.85
2023-05-03T23:51:07.647Z,4.45
2023-05-03T23:53:34.013Z,4.65
2023-05-03T23:56:00.449Z,4.45
2023-05-03T23:58:26.795Z,4.63
